sensor_id;sensor_type;location;lat;lon;timestamp;P1;durP1;ratioP1;P2;durP2;ratioP2
51556;SDS011;38766;53.194;5.532;2022-12-08T00:01:41;3.95;;;0.88;;
51556;SDS011;38766;53.194;5.532;2022-12-08T00:04:07;4.68;;;1.00;;
51556;SDS011;38766;53.194;5.532;2022-12-08T00:14:22;5.88;;;1.40;;
51556;SDS011;38766;53.194;5.532;2022-12-08T00:16:53;5.72;;;1.08;;
51556;SDS011;38766;53.194;5.532;2022-12-08T00:19:19;5.00;;;1.13;;
51556;SDS011;38766;53.194;5.532;2022-12-08T00:21:45;6.38;;;0.90;;
51556;SDS011;38766;53.194;5.532;2022-12-08T00:24:11;5.70;;;0.98;;
51556;SDS011;38766;53.194;5.532;2022-12-08T00:26:37;3.50;;;1.08;;
51556;SDS011;38766;53.194;5.532;2022-12-08T00:29:03;2.53;;;1.05;;
51556;SDS011;38766;53.194;5.532;2022-12-08T00:31:29;5.85;;;1.02;;
51556;SDS011;38766;53.194;5.532;2022-12-08T00:33:55;6.05;;;1.35;;
51556;SDS011;38766;53.194;5.532;2022-12-08T00:36:21;7.32;;;1.38;;
51556;SDS011;38766;53.194;5.532;2022-12-08T00:38:47;3.10;;;0.95;;
51556;SDS011;38766;53.194;5.532;2022-12-08T00:41:14;5.63;;;1.27;;
51556;SDS011;38766;53.194;5.532;2022-12-08T00:43:42;3.45;;;0.65;;
51556;SDS011;38766;53.194;5.532;2022-12-08T00:46:08;4.00;;;1.05;;
51556;SDS011;38766;53.194;5.532;2022-12-08T00:48:37;4.85;;;0.60;;
51556;SDS011;38766;53.194;5.532;2022-12-08T00:51:03;5.15;;;1.58;;
51556;SDS011;38766;53.194;5.532;2022-12-08T00:53:29;5.13;;;1.65;;
51556;SDS011;38766;53.194;5.532;2022-12-08T00:55:55;3.33;;;1.15;;
51556;SDS011;38766;53.194;5.532;2022-12-08T00:58:20;3.33;;;1.30;;
51556;SDS011;38766;53.194;5.532;2022-12-08T01:00:46;2.50;;;0.93;;
51556;SDS011;38766;53.194;5.532;2022-12-08T01:03:12;2.25;;;0.98;;
51556;SDS011;38766;53.194;5.532;2022-12-08T01:05:38;2.20;;;1.20;;
51556;SDS011;38766;53.194;5.532;2022-12-08T01:08:04;1.67;;;0.93;;
51556;SDS011;38766;53.194;5.532;2022-12-08T01:10:30;2.45;;;0.68;;
51556;SDS011;38766;53.194;5.532;2022-12-08T01:12:58;4.15;;;0.93;;
51556;SDS011;38766;53.194;5.532;2022-12-08T01:15:24;3.88;;;0.57;;
51556;SDS011;38766;53.194;5.532;2022-12-08T01:17:50;2.33;;;0.73;;
51556;SDS011;38766;53.194;5.532;2022-12-08T01:20:15;2.17;;;0.80;;
51556;SDS011;38766;53.194;5.532;2022-12-08T01:22:41;3.33;;;0.70;;
51556;SDS011;38766;53.194;5.532;2022-12-08T01:25:07;1.63;;;0.50;;
51556;SDS011;38766;53.194;5.532;2022-12-08T01:27:33;4.00;;;1.15;;
51556;SDS011;38766;53.194;5.532;2022-12-08T01:29:58;4.72;;;0.90;;
51556;SDS011;38766;53.194;5.532;2022-12-08T01:32:24;8.25;;;1.88;;
51556;SDS011;38766;53.194;5.532;2022-12-08T01:34:49;6.05;;;1.45;;
51556;SDS011;38766;53.194;5.532;2022-12-08T01:37:15;2.47;;;0.75;;
51556;SDS011;38766;53.194;5.532;2022-12-08T01:39:41;5.05;;;0.50;;
51556;SDS011;38766;53.194;5.532;2022-12-08T01:42:20;1.38;;;0.68;;
51556;SDS011;38766;53.194;5.532;2022-12-08T01:47:21;1.00;;;0.55;;
51556;SDS011;38766;53.194;5.532;2022-12-08T01:49:48;1.08;;;0.50;;
51556;SDS011;38766;53.194;5.532;2022-12-08T01:52:15;3.85;;;0.93;;
51556;SDS011;38766;53.194;5.532;2022-12-08T01:54:57;3.08;;;0.80;;
51556;SDS011;38766;53.194;5.532;2022-12-08T01:57:27;5.70;;;0.82;;
51556;SDS011;38766;53.194;5.532;2022-12-08T02:00:05;5.47;;;0.82;;
51556;SDS011;38766;53.194;5.532;2022-12-08T02:02:35;2.03;;;0.63;;
51556;SDS011;38766;53.194;5.532;2022-12-08T02:05:10;4.13;;;0.70;;
51556;SDS011;38766;53.194;5.532;2022-12-08T02:07:37;2.50;;;0.60;;
51556;SDS011;38766;53.194;5.532;2022-12-08T02:10:03;2.90;;;0.47;;
51556;SDS011;38766;53.194;5.532;2022-12-08T02:12:29;2.58;;;0.73;;
51556;SDS011;38766;53.194;5.532;2022-12-08T02:14:55;0.88;;;0.65;;
51556;SDS011;38766;53.194;5.532;2022-12-08T02:17:28;3.70;;;0.90;;
51556;SDS011;38766;53.194;5.532;2022-12-08T02:23:18;7.55;;;0.88;;
51556;SDS011;38766;53.194;5.532;2022-12-08T02:35:34;3.22;;;0.77;;
51556;SDS011;38766;53.194;5.532;2022-12-08T02:38:11;7.97;;;0.55;;
51556;SDS011;38766;53.194;5.532;2022-12-08T02:43:45;1.63;;;0.50;;
51556;SDS011;38766;53.194;5.532;2022-12-08T02:46:19;2.63;;;0.60;;
51556;SDS011;38766;53.194;5.532;2022-12-08T02:48:49;2.22;;;0.68;;
51556;SDS011;38766;53.194;5.532;2022-12-08T02:51:15;4.03;;;1.10;;
51556;SDS011;38766;53.194;5.532;2022-12-08T02:53:41;4.32;;;0.55;;
51556;SDS011;38766;53.194;5.532;2022-12-08T03:01:43;10.00;;;1.00;;
51556;SDS011;38766;53.194;5.532;2022-12-08T03:06:45;2.42;;;0.93;;
51556;SDS011;38766;53.194;5.532;2022-12-08T03:12:08;2.30;;;0.70;;
51556;SDS011;38766;53.194;5.532;2022-12-08T03:14:49;3.35;;;0.65;;
51556;SDS011;38766;53.194;5.532;2022-12-08T03:17:19;2.50;;;0.30;;
51556;SDS011;38766;53.194;5.532;2022-12-08T03:19:46;3.72;;;0.47;;
51556;SDS011;38766;53.194;5.532;2022-12-08T03:22:13;2.83;;;0.40;;
51556;SDS011;38766;53.194;5.532;2022-12-08T03:24:43;3.08;;;0.30;;
51556;SDS011;38766;53.194;5.532;2022-12-08T03:27:10;1.08;;;0.45;;
51556;SDS011;38766;53.194;5.532;2022-12-08T03:29:36;0.95;;;0.40;;
51556;SDS011;38766;53.194;5.532;2022-12-08T03:32:05;0.98;;;0.32;;
51556;SDS011;38766;53.194;5.532;2022-12-08T03:34:54;1.45;;;0.30;;
51556;SDS011;38766;53.194;5.532;2022-12-08T03:37:21;0.90;;;0.30;;
51556;SDS011;38766;53.194;5.532;2022-12-08T03:39:47;3.50;;;0.30;;
51556;SDS011;38766;53.194;5.532;2022-12-08T03:42:12;0.30;;;0.30;;
51556;SDS011;38766;53.194;5.532;2022-12-08T03:44:38;2.38;;;0.65;;
51556;SDS011;38766;53.194;5.532;2022-12-08T03:47:04;2.00;;;0.40;;
51556;SDS011;38766;53.194;5.532;2022-12-08T03:49:29;2.30;;;0.60;;
51556;SDS011;38766;53.194;5.532;2022-12-08T03:51:55;4.93;;;0.70;;
51556;SDS011;38766;53.194;5.532;2022-12-08T03:54:20;0.65;;;0.40;;
51556;SDS011;38766;53.194;5.532;2022-12-08T03:56:46;0.68;;;0.30;;
51556;SDS011;38766;53.194;5.532;2022-12-08T03:59:12;5.03;;;0.68;;
51556;SDS011;38766;53.194;5.532;2022-12-08T04:01:37;2.88;;;0.47;;
51556;SDS011;38766;53.194;5.532;2022-12-08T04:04:04;1.75;;;0.47;;
51556;SDS011;38766;53.194;5.532;2022-12-08T04:06:30;0.93;;;0.65;;
51556;SDS011;38766;53.194;5.532;2022-12-08T04:08:55;4.20;;;0.43;;
51556;SDS011;38766;53.194;5.532;2022-12-08T04:11:21;2.83;;;0.45;;
51556;SDS011;38766;53.194;5.532;2022-12-08T04:13:47;2.60;;;0.63;;
51556;SDS011;38766;53.194;5.532;2022-12-08T04:16:16;2.78;;;0.43;;
51556;SDS011;38766;53.194;5.532;2022-12-08T04:18:43;3.10;;;0.60;;
51556;SDS011;38766;53.194;5.532;2022-12-08T04:21:09;2.13;;;0.50;;
51556;SDS011;38766;53.194;5.532;2022-12-08T04:23:35;0.60;;;0.22;;
51556;SDS011;38766;53.194;5.532;2022-12-08T04:26:01;0.32;;;0.22;;
51556;SDS011;38766;53.194;5.532;2022-12-08T04:28:27;0.45;;;0.22;;
51556;SDS011;38766;53.194;5.532;2022-12-08T04:30:53;1.58;;;0.40;;
51556;SDS011;38766;53.194;5.532;2022-12-08T04:33:19;1.52;;;0.40;;
51556;SDS011;38766;53.194;5.532;2022-12-08T04:35:45;0.68;;;0.30;;
51556;SDS011;38766;53.194;5.532;2022-12-08T04:38:10;3.03;;;0.60;;
51556;SDS011;38766;53.194;5.532;2022-12-08T04:40:36;2.25;;;0.10;;
51556;SDS011;38766;53.194;5.532;2022-12-08T04:43:03;6.93;;;0.60;;
51556;SDS011;38766;53.194;5.532;2022-12-08T04:45:29;3.63;;;0.57;;
51556;SDS011;38766;53.194;5.532;2022-12-08T04:47:54;1.52;;;0.40;;
51556;SDS011;38766;53.194;5.532;2022-12-08T04:50:23;0.30;;;0.20;;
51556;SDS011;38766;53.194;5.532;2022-12-08T04:52:48;2.10;;;0.40;;
51556;SDS011;38766;53.194;5.532;2022-12-08T04:55:14;2.00;;;0.65;;
51556;SDS011;38766;53.194;5.532;2022-12-08T04:57:40;1.15;;;0.52;;
51556;SDS011;38766;53.194;5.532;2022-12-08T05:00:05;0.30;;;0.30;;
51556;SDS011;38766;53.194;5.532;2022-12-08T05:02:32;4.25;;;1.17;;
51556;SDS011;38766;53.194;5.532;2022-12-08T05:04:58;1.33;;;0.45;;
51556;SDS011;38766;53.194;5.532;2022-12-08T05:07:24;2.13;;;0.98;;
51556;SDS011;38766;53.194;5.532;2022-12-08T05:09:49;0.65;;;0.43;;
51556;SDS011;38766;53.194;5.532;2022-12-08T05:12:15;1.67;;;0.30;;
51556;SDS011;38766;53.194;5.532;2022-12-08T05:14:41;1.30;;;0.73;;
51556;SDS011;38766;53.194;5.532;2022-12-08T05:17:06;1.50;;;0.47;;
51556;SDS011;38766;53.194;5.532;2022-12-08T05:19:32;2.90;;;0.85;;
51556;SDS011;38766;53.194;5.532;2022-12-08T05:21:57;5.47;;;1.00;;
51556;SDS011;38766;53.194;5.532;2022-12-08T05:24:23;8.50;;;1.20;;
51556;SDS011;38766;53.194;5.532;2022-12-08T05:26:49;5.68;;;1.13;;
51556;SDS011;38766;53.194;5.532;2022-12-08T05:29:14;3.90;;;1.13;;
51556;SDS011;38766;53.194;5.532;2022-12-08T05:31:40;9.82;;;1.55;;
51556;SDS011;38766;53.194;5.532;2022-12-08T05:34:05;4.25;;;1.33;;
51556;SDS011;38766;53.194;5.532;2022-12-08T05:36:31;5.32;;;0.95;;
51556;SDS011;38766;53.194;5.532;2022-12-08T05:38:57;5.45;;;1.27;;
51556;SDS011;38766;53.194;5.532;2022-12-08T05:41:22;4.38;;;1.20;;
51556;SDS011;38766;53.194;5.532;2022-12-08T05:43:48;7.47;;;1.42;;
51556;SDS011;38766;53.194;5.532;2022-12-08T05:46:15;3.83;;;1.02;;
51556;SDS011;38766;53.194;5.532;2022-12-08T05:48:41;2.38;;;0.68;;
51556;SDS011;38766;53.194;5.532;2022-12-08T05:51:11;3.42;;;0.88;;
51556;SDS011;38766;53.194;5.532;2022-12-08T05:53:43;2.45;;;0.90;;
51556;SDS011;38766;53.194;5.532;2022-12-08T05:56:09;5.85;;;0.82;;
51556;SDS011;38766;53.194;5.532;2022-12-08T05:58:35;3.95;;;0.98;;
51556;SDS011;38766;53.194;5.532;2022-12-08T06:01:00;2.42;;;0.80;;
51556;SDS011;38766;53.194;5.532;2022-12-08T06:03:27;3.42;;;1.42;;
51556;SDS011;38766;53.194;5.532;2022-12-08T06:05:52;3.33;;;0.77;;
51556;SDS011;38766;53.194;5.532;2022-12-08T06:08:18;4.03;;;1.02;;
51556;SDS011;38766;53.194;5.532;2022-12-08T06:10:44;3.67;;;1.48;;
51556;SDS011;38766;53.194;5.532;2022-12-08T06:13:10;4.57;;;0.85;;
51556;SDS011;38766;53.194;5.532;2022-12-08T06:15:38;6.07;;;1.30;;
51556;SDS011;38766;53.194;5.532;2022-12-08T06:18:04;5.25;;;1.30;;
51556;SDS011;38766;53.194;5.532;2022-12-08T06:20:31;6.60;;;1.48;;
51556;SDS011;38766;53.194;5.532;2022-12-08T06:22:58;4.18;;;2.05;;
51556;SDS011;38766;53.194;5.532;2022-12-08T06:25:24;3.83;;;1.60;;
51556;SDS011;38766;53.194;5.532;2022-12-08T06:27:50;6.18;;;2.05;;
51556;SDS011;38766;53.194;5.532;2022-12-08T06:30:16;3.47;;;1.52;;
51556;SDS011;38766;53.194;5.532;2022-12-08T06:32:43;6.43;;;2.55;;
51556;SDS011;38766;53.194;5.532;2022-12-08T06:35:09;6.97;;;1.75;;
51556;SDS011;38766;53.194;5.532;2022-12-08T06:37:35;9.75;;;2.17;;
51556;SDS011;38766;53.194;5.532;2022-12-08T06:40:00;5.35;;;1.85;;
51556;SDS011;38766;53.194;5.532;2022-12-08T06:42:26;4.93;;;1.60;;
51556;SDS011;38766;53.194;5.532;2022-12-08T06:45:14;5.13;;;1.75;;
51556;SDS011;38766;53.194;5.532;2022-12-08T06:47:41;5.90;;;2.42;;
51556;SDS011;38766;53.194;5.532;2022-12-08T06:50:07;6.18;;;2.50;;
51556;SDS011;38766;53.194;5.532;2022-12-08T06:52:34;4.85;;;2.17;;
51556;SDS011;38766;53.194;5.532;2022-12-08T06:54:59;6.32;;;2.85;;
51556;SDS011;38766;53.194;5.532;2022-12-08T06:57:25;7.20;;;3.45;;
51556;SDS011;38766;53.194;5.532;2022-12-08T06:59:50;11.50;;;3.95;;
51556;SDS011;38766;53.194;5.532;2022-12-08T07:02:16;9.38;;;4.22;;
51556;SDS011;38766;53.194;5.532;2022-12-08T07:04:42;8.60;;;3.90;;
51556;SDS011;38766;53.194;5.532;2022-12-08T07:07:08;9.10;;;5.10;;
51556;SDS011;38766;53.194;5.532;2022-12-08T07:09:34;9.13;;;4.80;;
51556;SDS011;38766;53.194;5.532;2022-12-08T07:12:01;8.05;;;4.10;;
51556;SDS011;38766;53.194;5.532;2022-12-08T07:14:27;8.48;;;3.85;;
51556;SDS011;38766;53.194;5.532;2022-12-08T07:16:53;9.93;;;3.30;;
51556;SDS011;38766;53.194;5.532;2022-12-08T07:19:18;8.43;;;3.30;;
51556;SDS011;38766;53.194;5.532;2022-12-08T07:21:44;6.15;;;3.60;;
51556;SDS011;38766;53.194;5.532;2022-12-08T07:24:09;6.90;;;4.20;;
51556;SDS011;38766;53.194;5.532;2022-12-08T07:26:35;10.15;;;3.88;;
51556;SDS011;38766;53.194;5.532;2022-12-08T07:29:02;8.85;;;3.63;;
51556;SDS011;38766;53.194;5.532;2022-12-08T07:31:27;7.85;;;4.28;;
51556;SDS011;38766;53.194;5.532;2022-12-08T07:33:54;8.35;;;4.18;;
51556;SDS011;38766;53.194;5.532;2022-12-08T07:36:20;8.82;;;3.83;;
51556;SDS011;38766;53.194;5.532;2022-12-08T07:38:46;7.68;;;4.57;;
51556;SDS011;38766;53.194;5.532;2022-12-08T07:41:13;8.57;;;4.35;;
51556;SDS011;38766;53.194;5.532;2022-12-08T07:43:40;10.20;;;4.07;;
51556;SDS011;38766;53.194;5.532;2022-12-08T07:46:06;10.10;;;5.30;;
51556;SDS011;38766;53.194;5.532;2022-12-08T07:48:35;10.32;;;4.45;;
51556;SDS011;38766;53.194;5.532;2022-12-08T07:51:01;9.18;;;4.22;;
51556;SDS011;38766;53.194;5.532;2022-12-08T07:53:27;6.65;;;4.05;;
51556;SDS011;38766;53.194;5.532;2022-12-08T07:55:53;9.45;;;4.75;;
51556;SDS011;38766;53.194;5.532;2022-12-08T07:58:19;10.70;;;3.83;;
51556;SDS011;38766;53.194;5.532;2022-12-08T08:00:44;8.40;;;4.10;;
51556;SDS011;38766;53.194;5.532;2022-12-08T08:03:10;7.10;;;3.10;;
51556;SDS011;38766;53.194;5.532;2022-12-08T08:05:36;8.73;;;3.30;;
51556;SDS011;38766;53.194;5.532;2022-12-08T08:08:02;7.03;;;2.40;;
51556;SDS011;38766;53.194;5.532;2022-12-08T08:10:27;4.65;;;2.33;;
51556;SDS011;38766;53.194;5.532;2022-12-08T08:12:53;5.18;;;2.13;;
51556;SDS011;38766;53.194;5.532;2022-12-08T08:15:19;4.90;;;2.20;;
51556;SDS011;38766;53.194;5.532;2022-12-08T08:17:47;5.15;;;2.40;;
51556;SDS011;38766;53.194;5.532;2022-12-08T08:20:15;8.20;;;3.30;;
51556;SDS011;38766;53.194;5.532;2022-12-08T08:22:41;4.97;;;3.75;;
51556;SDS011;38766;53.194;5.532;2022-12-08T08:25:07;8.32;;;3.80;;
51556;SDS011;38766;53.194;5.532;2022-12-08T08:27:33;5.05;;;3.40;;
51556;SDS011;38766;53.194;5.532;2022-12-08T08:29:58;9.13;;;3.78;;
51556;SDS011;38766;53.194;5.532;2022-12-08T08:32:24;5.65;;;3.60;;
51556;SDS011;38766;53.194;5.532;2022-12-08T08:34:50;6.85;;;2.80;;
51556;SDS011;38766;53.194;5.532;2022-12-08T08:37:15;6.07;;;2.50;;
51556;SDS011;38766;53.194;5.532;2022-12-08T08:39:41;6.65;;;1.80;;
51556;SDS011;38766;53.194;5.532;2022-12-08T08:42:07;7.25;;;1.55;;
51556;SDS011;38766;53.194;5.532;2022-12-08T08:44:33;9.85;;;1.80;;
51556;SDS011;38766;53.194;5.532;2022-12-08T08:46:58;9.63;;;1.67;;
51556;SDS011;38766;53.194;5.532;2022-12-08T08:49:24;7.90;;;1.30;;
51556;SDS011;38766;53.194;5.532;2022-12-08T08:51:49;4.30;;;1.50;;
51556;SDS011;38766;53.194;5.532;2022-12-08T08:54:15;3.33;;;1.38;;
51556;SDS011;38766;53.194;5.532;2022-12-08T08:56:41;3.40;;;1.30;;
51556;SDS011;38766;53.194;5.532;2022-12-08T08:59:06;7.03;;;1.40;;
51556;SDS011;38766;53.194;5.532;2022-12-08T09:01:33;6.70;;;1.70;;
51556;SDS011;38766;53.194;5.532;2022-12-08T09:03:59;7.82;;;1.45;;
51556;SDS011;38766;53.194;5.532;2022-12-08T09:06:25;6.25;;;1.50;;
51556;SDS011;38766;53.194;5.532;2022-12-08T09:08:52;5.72;;;1.58;;
51556;SDS011;38766;53.194;5.532;2022-12-08T09:11:18;7.82;;;2.38;;
51556;SDS011;38766;53.194;5.532;2022-12-08T09:13:47;5.88;;;1.60;;
51556;SDS011;38766;53.194;5.532;2022-12-08T09:16:14;4.43;;;1.98;;
51556;SDS011;38766;53.194;5.532;2022-12-08T09:18:40;3.55;;;2.00;;
51556;SDS011;38766;53.194;5.532;2022-12-08T09:21:06;2.97;;;1.58;;
51556;SDS011;38766;53.194;5.532;2022-12-08T09:23:35;9.30;;;3.15;;
51556;SDS011;38766;53.194;5.532;2022-12-08T09:26:01;3.05;;;1.63;;
51556;SDS011;38766;53.194;5.532;2022-12-08T09:28:29;5.28;;;1.58;;
51556;SDS011;38766;53.194;5.532;2022-12-08T09:30:55;3.28;;;1.58;;
51556;SDS011;38766;53.194;5.532;2022-12-08T09:33:20;3.80;;;1.60;;
51556;SDS011;38766;53.194;5.532;2022-12-08T09:35:46;7.88;;;1.83;;
51556;SDS011;38766;53.194;5.532;2022-12-08T09:38:11;4.18;;;2.20;;
51556;SDS011;38766;53.194;5.532;2022-12-08T09:40:43;11.10;;;3.03;;
51556;SDS011;38766;53.194;5.532;2022-12-08T09:45:44;16.60;;;7.68;;
51556;SDS011;38766;53.194;5.532;2022-12-08T09:48:15;16.45;;;6.28;;
51556;SDS011;38766;53.194;5.532;2022-12-08T09:53:15;5.25;;;1.90;;
51556;SDS011;38766;53.194;5.532;2022-12-08T09:55:48;4.20;;;1.88;;
51556;SDS011;38766;53.194;5.532;2022-12-08T09:58:28;12.73;;;3.50;;
51556;SDS011;38766;53.194;5.532;2022-12-08T10:01:02;6.00;;;1.73;;
51556;SDS011;38766;53.194;5.532;2022-12-08T10:03:28;5.15;;;1.52;;
51556;SDS011;38766;53.194;5.532;2022-12-08T10:05:57;3.47;;;0.75;;
51556;SDS011;38766;53.194;5.532;2022-12-08T10:08:34;2.83;;;1.20;;
51556;SDS011;38766;53.194;5.532;2022-12-08T10:11:15;1.95;;;0.80;;
51556;SDS011;38766;53.194;5.532;2022-12-08T10:13:55;2.25;;;0.80;;
51556;SDS011;38766;53.194;5.532;2022-12-08T10:16:38;6.25;;;0.70;;
51556;SDS011;38766;53.194;5.532;2022-12-08T10:19:13;3.58;;;1.20;;
51556;SDS011;38766;53.194;5.532;2022-12-08T10:21:42;6.43;;;2.63;;
51556;SDS011;38766;53.194;5.532;2022-12-08T10:24:11;3.50;;;0.80;;
51556;SDS011;38766;53.194;5.532;2022-12-08T10:26:58;2.63;;;1.00;;
51556;SDS011;38766;53.194;5.532;2022-12-08T10:29:25;5.95;;;1.08;;
51556;SDS011;38766;53.194;5.532;2022-12-08T10:31:51;1.55;;;0.70;;
51556;SDS011;38766;53.194;5.532;2022-12-08T10:34:17;1.60;;;0.80;;
51556;SDS011;38766;53.194;5.532;2022-12-08T10:36:47;2.13;;;0.75;;
51556;SDS011;38766;53.194;5.532;2022-12-08T10:39:28;1.40;;;0.82;;
51556;SDS011;38766;53.194;5.532;2022-12-08T10:42:15;1.15;;;0.88;;
51556;SDS011;38766;53.194;5.532;2022-12-08T10:47:19;2.90;;;0.50;;
51556;SDS011;38766;53.194;5.532;2022-12-08T10:49:47;2.28;;;0.73;;
51556;SDS011;38766;53.194;5.532;2022-12-08T10:52:29;2.00;;;0.90;;
51556;SDS011;38766;53.194;5.532;2022-12-08T10:54:55;1.67;;;0.60;;
51556;SDS011;38766;53.194;5.532;2022-12-08T10:57:24;5.30;;;0.85;;
51556;SDS011;38766;53.194;5.532;2022-12-08T10:59:53;1.77;;;0.68;;
51556;SDS011;38766;53.194;5.532;2022-12-08T11:02:20;1.50;;;0.70;;
51556;SDS011;38766;53.194;5.532;2022-12-08T11:04:46;1.42;;;0.95;;
51556;SDS011;38766;53.194;5.532;2022-12-08T11:07:20;3.13;;;0.73;;
51556;SDS011;38766;53.194;5.532;2022-12-08T11:09:47;2.45;;;0.70;;
51556;SDS011;38766;53.194;5.532;2022-12-08T11:12:20;1.95;;;0.75;;
51556;SDS011;38766;53.194;5.532;2022-12-08T11:14:48;1.73;;;1.08;;
51556;SDS011;38766;53.194;5.532;2022-12-08T11:22:39;1.92;;;0.95;;
51556;SDS011;38766;53.194;5.532;2022-12-08T11:27:32;3.80;;;0.70;;
51556;SDS011;38766;53.194;5.532;2022-12-08T11:30:00;1.35;;;0.60;;
51556;SDS011;38766;53.194;5.532;2022-12-08T11:32:30;1.80;;;0.60;;
51556;SDS011;38766;53.194;5.532;2022-12-08T11:35:03;3.10;;;1.00;;
51556;SDS011;38766;53.194;5.532;2022-12-08T11:37:32;3.17;;;0.82;;
51556;SDS011;38766;53.194;5.532;2022-12-08T11:40:04;2.90;;;0.90;;
51556;SDS011;38766;53.194;5.532;2022-12-08T11:45:37;5.35;;;0.98;;
51556;SDS011;38766;53.194;5.532;2022-12-08T11:48:08;1.88;;;0.68;;
51556;SDS011;38766;53.194;5.532;2022-12-08T11:50:42;2.70;;;1.00;;
51556;SDS011;38766;53.194;5.532;2022-12-08T11:56:19;3.25;;;1.88;;
51556;SDS011;38766;53.194;5.532;2022-12-08T11:58:53;1.00;;;0.85;;
51556;SDS011;38766;53.194;5.532;2022-12-08T12:01:22;2.22;;;0.57;;
51556;SDS011;38766;53.194;5.532;2022-12-08T12:03:52;2.42;;;0.73;;
51556;SDS011;38766;53.194;5.532;2022-12-08T12:10:04;0.65;;;0.65;;
51556;SDS011;38766;53.194;5.532;2022-12-08T12:12:58;4.57;;;0.88;;
51556;SDS011;38766;53.194;5.532;2022-12-08T12:15:53;2.72;;;1.30;;
51556;SDS011;38766;53.194;5.532;2022-12-08T12:21:01;3.20;;;0.68;;
51556;SDS011;38766;53.194;5.532;2022-12-08T12:26:20;1.05;;;0.95;;
51556;SDS011;38766;53.194;5.532;2022-12-08T12:28:54;1.38;;;0.68;;
51556;SDS011;38766;53.194;5.532;2022-12-08T12:31:25;5.85;;;5.28;;
51556;SDS011;38766;53.194;5.532;2022-12-08T12:34:05;3.10;;;1.45;;
51556;SDS011;38766;53.194;5.532;2022-12-08T12:47:49;1.70;;;0.63;;
51556;SDS011;38766;53.194;5.532;2022-12-08T12:52:59;1.33;;;1.20;;
51556;SDS011;38766;53.194;5.532;2022-12-08T12:58:20;2.20;;;0.80;;
51556;SDS011;38766;53.194;5.532;2022-12-08T13:03:39;6.30;;;1.00;;
51556;SDS011;38766;53.194;5.532;2022-12-08T13:06:34;2.13;;;1.13;;
51556;SDS011;38766;53.194;5.532;2022-12-08T13:09:06;0.77;;;0.40;;
51556;SDS011;38766;53.194;5.532;2022-12-08T13:11:49;0.88;;;0.55;;
51556;SDS011;38766;53.194;5.532;2022-12-08T13:14:24;6.95;;;1.10;;
51556;SDS011;38766;53.194;5.532;2022-12-08T13:16:59;2.33;;;0.47;;
51556;SDS011;38766;53.194;5.532;2022-12-08T13:19:28;2.55;;;0.55;;
51556;SDS011;38766;53.194;5.532;2022-12-08T13:21:55;1.92;;;0.57;;
51556;SDS011;38766;53.194;5.532;2022-12-08T13:26:49;1.15;;;0.40;;
51556;SDS011;38766;53.194;5.532;2022-12-08T13:29:38;1.50;;;0.57;;
51556;SDS011;38766;53.194;5.532;2022-12-08T13:34:34;3.17;;;0.70;;
51556;SDS011;38766;53.194;5.532;2022-12-08T13:44:54;3.60;;;1.00;;
51556;SDS011;38766;53.194;5.532;2022-12-08T13:47:33;1.90;;;0.57;;
51556;SDS011;38766;53.194;5.532;2022-12-08T13:50:03;2.17;;;0.60;;
51556;SDS011;38766;53.194;5.532;2022-12-08T13:52:53;2.38;;;0.80;;
51556;SDS011;38766;53.194;5.532;2022-12-08T13:55:31;4.13;;;0.80;;
51556;SDS011;38766;53.194;5.532;2022-12-08T13:57:58;3.00;;;0.90;;
51556;SDS011;38766;53.194;5.532;2022-12-08T14:00:24;2.60;;;1.10;;
51556;SDS011;38766;53.194;5.532;2022-12-08T14:02:56;0.93;;;0.70;;
51556;SDS011;38766;53.194;5.532;2022-12-08T14:05:25;3.35;;;1.10;;
51556;SDS011;38766;53.194;5.532;2022-12-08T14:08:02;2.08;;;1.20;;
51556;SDS011;38766;53.194;5.532;2022-12-08T14:10:29;5.45;;;1.80;;
51556;SDS011;38766;53.194;5.532;2022-12-08T14:12:58;2.35;;;1.30;;
51556;SDS011;38766;53.194;5.532;2022-12-08T14:15:26;5.10;;;1.52;;
51556;SDS011;38766;53.194;5.532;2022-12-08T14:17:53;4.55;;;1.80;;
51556;SDS011;38766;53.194;5.532;2022-12-08T14:20:25;2.20;;;1.60;;
51556;SDS011;38766;53.194;5.532;2022-12-08T14:22:55;3.90;;;1.55;;
51556;SDS011;38766;53.194;5.532;2022-12-08T14:25:23;4.50;;;2.00;;
51556;SDS011;38766;53.194;5.532;2022-12-08T14:28:01;3.95;;;1.90;;
51556;SDS011;38766;53.194;5.532;2022-12-08T14:30:31;4.72;;;1.45;;
51556;SDS011;38766;53.194;5.532;2022-12-08T14:32:59;2.90;;;1.38;;
51556;SDS011;38766;53.194;5.532;2022-12-08T14:37:59;7.45;;;2.78;;
51556;SDS011;38766;53.194;5.532;2022-12-08T14:53:55;7.53;;;3.25;;
51556;SDS011;38766;53.194;5.532;2022-12-08T14:56:25;5.50;;;3.15;;
51556;SDS011;38766;53.194;5.532;2022-12-08T14:59:18;8.20;;;3.47;;
51556;SDS011;38766;53.194;5.532;2022-12-08T15:01:51;5.13;;;2.65;;
51556;SDS011;38766;53.194;5.532;2022-12-08T15:04:24;4.97;;;2.70;;
51556;SDS011;38766;53.194;5.532;2022-12-08T15:09:36;6.75;;;3.55;;
51556;SDS011;38766;53.194;5.532;2022-12-08T15:14:37;6.22;;;3.35;;
51556;SDS011;38766;53.194;5.532;2022-12-08T15:21:09;3.08;;;1.75;;
51556;SDS011;38766;53.194;5.532;2022-12-08T15:23:04;4.90;;;2.00;;
51556;SDS011;38766;53.194;5.532;2022-12-08T15:25:30;14.98;;;6.63;;
51556;SDS011;38766;53.194;5.532;2022-12-08T15:27:56;11.32;;;5.10;;
51556;SDS011;38766;53.194;5.532;2022-12-08T15:30:22;19.17;;;10.63;;
51556;SDS011;38766;53.194;5.532;2022-12-08T15:32:50;16.73;;;11.98;;
51556;SDS011;38766;53.194;5.532;2022-12-08T15:35:18;11.20;;;7.97;;
51556;SDS011;38766;53.194;5.532;2022-12-08T15:37:43;10.23;;;5.55;;
51556;SDS011;38766;53.194;5.532;2022-12-08T15:40:17;7.95;;;4.43;;
51556;SDS011;38766;53.194;5.532;2022-12-08T15:42:45;6.38;;;3.33;;
51556;SDS011;38766;53.194;5.532;2022-12-08T15:45:12;4.90;;;3.05;;
51556;SDS011;38766;53.194;5.532;2022-12-08T15:47:38;3.60;;;3.10;;
51556;SDS011;38766;53.194;5.532;2022-12-08T15:50:06;5.85;;;3.20;;
51556;SDS011;38766;53.194;5.532;2022-12-08T15:52:38;4.57;;;3.10;;
51556;SDS011;38766;53.194;5.532;2022-12-08T15:55:03;5.97;;;2.28;;
51556;SDS011;38766;53.194;5.532;2022-12-08T15:57:29;5.30;;;2.45;;
51556;SDS011;38766;53.194;5.532;2022-12-08T15:59:56;5.63;;;2.65;;
51556;SDS011;38766;53.194;5.532;2022-12-08T16:02:22;11.18;;;3.97;;
51556;SDS011;38766;53.194;5.532;2022-12-08T16:04:48;6.35;;;4.00;;
51556;SDS011;38766;53.194;5.532;2022-12-08T16:07:25;5.80;;;3.70;;
51556;SDS011;38766;53.194;5.532;2022-12-08T16:09:52;6.20;;;3.40;;
51556;SDS011;38766;53.194;5.532;2022-12-08T16:12:22;5.32;;;2.85;;
51556;SDS011;38766;53.194;5.532;2022-12-08T16:15:09;3.47;;;2.35;;
51556;SDS011;38766;53.194;5.532;2022-12-08T16:17:36;4.32;;;2.47;;
51556;SDS011;38766;53.194;5.532;2022-12-08T16:20:03;7.40;;;3.33;;
51556;SDS011;38766;53.194;5.532;2022-12-08T16:22:31;7.47;;;4.05;;
51556;SDS011;38766;53.194;5.532;2022-12-08T16:24:57;8.05;;;4.07;;
51556;SDS011;38766;53.194;5.532;2022-12-08T16:27:24;5.38;;;3.33;;
51556;SDS011;38766;53.194;5.532;2022-12-08T16:29:52;4.53;;;3.53;;
51556;SDS011;38766;53.194;5.532;2022-12-08T16:32:19;8.52;;;3.47;;
51556;SDS011;38766;53.194;5.532;2022-12-08T16:34:45;5.78;;;3.35;;
51556;SDS011;38766;53.194;5.532;2022-12-08T16:37:12;5.13;;;2.88;;
51556;SDS011;38766;53.194;5.532;2022-12-08T16:39:39;4.63;;;3.67;;
51556;SDS011;38766;53.194;5.532;2022-12-08T16:42:04;5.15;;;3.50;;
51556;SDS011;38766;53.194;5.532;2022-12-08T16:44:49;6.00;;;3.30;;
51556;SDS011;38766;53.194;5.532;2022-12-08T16:47:14;7.35;;;3.95;;
51556;SDS011;38766;53.194;5.532;2022-12-08T16:49:40;6.90;;;4.05;;
51556;SDS011;38766;53.194;5.532;2022-12-08T16:52:05;6.65;;;4.22;;
51556;SDS011;38766;53.194;5.532;2022-12-08T16:54:31;6.75;;;4.25;;
51556;SDS011;38766;53.194;5.532;2022-12-08T16:56:57;6.10;;;4.80;;
51556;SDS011;38766;53.194;5.532;2022-12-08T16:59:23;11.57;;;5.55;;
51556;SDS011;38766;53.194;5.532;2022-12-08T17:01:49;8.27;;;4.88;;